Time;durP1;ratioP1;P1;durP2;ratioP2;P2;SDS_P1;SDS_P2;PMS_P1;PMS_P2;Temp;Humidity;BMP_temperature;BMP_pressure;BME280_temperature;BME280_humidity;BME280_pressure;Samples;Min_cycle;Max_cycle;Signal;HPM_P1;HPM_P2
2023/10/06 00:01:42;;;;;;;7.87;5.93;;;12.60;99.90;;;;;;5025432;28;20233;-82
2023/10/06 00:04:12;;;;;;;10.30;5.83;;;12.60;99.90;;;;;;5026372;28;20250;-82
2023/10/06 00:06:39;;;;;;;9.50;6.20;;;12.50;99.90;;;;;;5029806;28;20235;-81
2023/10/06 00:09:09;;;;;;;8.63;6.00;;;12.60;99.90;;;;;;5026533;28;20228;-81
2023/10/06 00:11:37;;;;;;;11.10;6.13;;;12.60;99.90;;;;;;5041106;28;20256;-81
2023/10/06 00:14:18;;;;;;;9.20;6.07;;;12.60;99.90;;;;;;5026012;28;20248;-82
2023/10/06 00:16:45;;;;;;;8.67;6.33;;;12.60;99.90;;;;;;5024614;28;20259;-82
2023/10/06 00:19:25;;;;;;;8.57;5.73;;;12.60;99.90;;;;;;5023831;28;20291;-82
2023/10/06 00:22:03;;;;;;;7.77;6.50;;;12.50;99.90;;;;;;5024828;28;20297;-82
2023/10/06 00:24:31;;;;;;;9.63;5.90;;;12.50;99.90;;;;;;5016857;28;20233;-82
2023/10/06 00:26:58;;;;;;;10.37;5.90;;;12.60;99.90;;;;;;5017844;28;20557;-81
2023/10/06 00:29:29;;;;;;;10.53;6.27;;;12.50;99.90;;;;;;5018465;28;20235;-81
2023/10/06 00:32:01;;;;;;;10.37;6.50;;;12.50;99.90;;;;;;5018590;28;20224;-80
2023/10/06 00:34:30;;;;;;;9.97;6.20;;;12.40;99.90;;;;;;5037205;28;20237;-80
2023/10/06 00:36:57;;;;;;;11.30;6.97;;;12.40;99.90;;;;;;5021208;28;20227;-80
2023/10/06 00:39:29;;;;;;;9.33;6.70;;;12.40;99.90;;;;;;5020248;28;20747;-81
2023/10/06 00:42:02;;;;;;;10.53;7.07;;;12.40;99.90;;;;;;5021759;28;20236;-80
2023/10/06 00:44:31;;;;;;;8.30;6.87;;;12.40;99.90;;;;;;5022178;28;20711;-80
2023/10/06 00:46:59;;;;;;;11.30;7.43;;;12.30;99.90;;;;;;5021384;28;20252;-81
2023/10/06 00:49:28;;;;;;;10.20;8.07;;;12.30;99.90;;;;;;5019202;28;20235;-80
2023/10/06 00:51:59;;;;;;;11.97;7.90;;;12.30;99.90;;;;;;5021476;28;20232;-81
2023/10/06 00:54:26;;;;;;;10.63;7.63;;;12.30;99.90;;;;;;5021640;28;20229;-82
2023/10/06 00:56:57;;;;;;;13.97;8.30;;;12.30;99.90;;;;;;5038938;28;20229;-81
2023/10/06 00:59:24;;;;;;;11.47;8.07;;;12.30;99.90;;;;;;5016176;28;20257;-81
2023/10/06 01:01:53;;;;;;;13.10;8.43;;;12.40;99.90;;;;;;5012962;28;20592;-81
2023/10/06 01:04:25;;;;;;;14.40;9.13;;;12.40;99.90;;;;;;5020962;28;20230;-82
2023/10/06 01:06:54;;;;;;;12.63;8.37;;;12.30;99.90;;;;;;5017062;28;20864;-83
2023/10/06 01:09:30;;;;;;;14.80;8.80;;;12.30;99.90;;;;;;5001436;28;20290;-82
2023/10/06 01:11:58;;;;;;;16.33;8.80;;;12.40;99.90;;;;;;5009284;28;20227;-82
2023/10/06 01:14:26;;;;;;;14.73;9.10;;;12.30;99.90;;;;;;5013785;28;20336;-82
2023/10/06 01:17:03;;;;;;;11.87;8.30;;;12.30;99.90;;;;;;5020981;28;20225;-81
2023/10/06 01:19:33;;;;;;;13.80;9.30;;;12.30;99.90;;;;;;5014699;28;20245;-83
2023/10/06 01:22:22;;;;;;;12.80;8.87;;;12.30;99.90;;;;;;5015340;28;20236;-83
2023/10/06 01:24:54;;;;;;;14.17;8.80;;;12.20;99.90;;;;;;5035242;28;20335;-82
2023/10/06 01:27:26;;;;;;;13.93;9.23;;;12.20;99.90;;;;;;5018058;28;20246;-83
2023/10/06 01:30:17;;;;;;;14.33;9.30;;;12.20;99.90;;;;;;5007238;28;20232;-83
2023/10/06 01:32:41;;;;;;;12.70;8.97;;;12.20;99.90;;;;;;5012390;28;20297;-81
2023/10/06 01:35:12;;;;;;;15.13;9.97;;;12.20;99.90;;;;;;5006241;28;20506;-80
2023/10/06 01:37:40;;;;;;;15.00;9.73;;;12.10;99.90;;;;;;5026232;28;20250;-82
2023/10/06 01:40:15;;;;;;;13.90;10.13;;;12.10;99.90;;;;;;5008184;28;20252;-80
2023/10/06 01:42:45;;;;;;;13.43;10.23;;;12.10;99.90;;;;;;5022735;28;20538;-81
2023/10/06 01:45:14;;;;;;;13.57;9.77;;;12.10;99.90;;;;;;4996441;28;20758;-81
2023/10/06 01:47:41;;;;;;;12.27;9.23;;;12.10;99.90;;;;;;5008429;28;20229;-83
2023/10/06 01:50:09;;;;;;;15.53;10.43;;;12.10;99.90;;;;;;4999984;28;20311;-82
2023/10/06 01:52:39;;;;;;;14.47;10.17;;;12.10;99.90;;;;;;5012587;28;20406;-82
2023/10/06 01:55:09;;;;;;;18.20;10.73;;;12.10;99.90;;;;;;5021088;28;20625;-82
2023/10/06 01:57:35;;;;;;;16.67;9.93;;;12.10;99.90;;;;;;5021132;28;20229;-82
2023/10/06 02:00:06;;;;;;;19.00;10.60;;;12.10;99.90;;;;;;5005984;28;20670;-83
2023/10/06 02:02:38;;;;;;;16.07;10.50;;;12.10;99.90;;;;;;5008159;28;20276;-82
2023/10/06 02:05:12;;;;;;;18.93;10.03;;;12.20;99.90;;;;;;5012190;28;20528;-82
2023/10/06 02:07:40;;;;;;;15.37;9.93;;;12.10;99.90;;;;;;5004538;28;20224;-82
2023/10/06 02:10:12;;;;;;;14.97;10.07;;;12.20;99.90;;;;;;5010410;28;20229;-82
2023/10/06 02:12:39;;;;;;;12.83;9.60;;;12.20;99.90;;;;;;5010580;28;20296;-82
2023/10/06 02:15:10;;;;;;;14.00;10.30;;;12.20;99.90;;;;;;5006955;28;20317;-82
2023/10/06 02:17:37;;;;;;;13.80;9.60;;;12.20;99.90;;;;;;5009225;28;20223;-83
2023/10/06 02:20:11;;;;;;;17.07;10.73;;;12.20;99.90;;;;;;5017209;28;20223;-82
2023/10/06 02:22:39;;;;;;;15.87;9.73;;;12.20;99.90;;;;;;5004448;28;20310;-83
2023/10/06 02:25:13;;;;;;;15.47;9.97;;;12.20;99.90;;;;;;5020982;28;20372;-83
2023/10/06 02:27:46;;;;;;;15.67;10.00;;;12.20;99.90;;;;;;5006503;28;20330;-80
2023/10/06 02:30:15;;;;;;;17.83;10.23;;;12.30;99.90;;;;;;5013546;28;20292;-81
2023/10/06 02:32:43;;;;;;;14.57;10.10;;;12.30;99.90;;;;;;5002860;28;20218;-81
2023/10/06 02:35:13;;;;;;;16.07;9.90;;;12.20;99.90;;;;;;4994480;28;20246;-81
2023/10/06 02:37:40;;;;;;;12.47;9.60;;;12.30;99.90;;;;;;4999426;28;20622;-81
2023/10/06 02:40:12;;;;;;;15.73;9.83;;;12.30;99.90;;;;;;4999979;28;20225;-80
2023/10/06 02:42:45;;;;;;;17.37;9.73;;;12.30;99.90;;;;;;4989110;28;20232;-80
2023/10/06 02:45:16;;;;;;;18.97;9.47;;;12.30;99.90;;;;;;4992021;28;20488;-81
2023/10/06 02:47:43;;;;;;;14.20;9.07;;;12.30;99.90;;;;;;4994872;28;20417;-80
2023/10/06 02:50:17;;;;;;;13.73;9.30;;;12.30;99.90;;;;;;4995083;28;20695;-80
2023/10/06 02:52:45;;;;;;;15.77;9.13;;;12.30;99.90;;;;;;5000175;28;20867;-79
2023/10/06 02:55:18;;;;;;;14.67;8.70;;;12.30;99.90;;;;;;4987969;28;20224;-79
2023/10/06 02:57:50;;;;;;;12.47;8.70;;;12.40;99.90;;;;;;4993874;28;20443;-81
2023/10/06 03:00:29;;;;;;;15.87;9.23;;;12.30;99.90;;;;;;4996836;28;20716;-79
2023/10/06 03:03:02;;;;;;;16.37;8.57;;;12.40;99.90;;;;;;4999466;28;20744;-80
2023/10/06 03:05:32;;;;;;;14.23;9.33;;;12.30;99.90;;;;;;4990031;28;20245;-80
2023/10/06 03:08:00;;;;;;;16.77;9.23;;;12.30;99.90;;;;;;4997080;28;20228;-79
2023/10/06 03:10:35;;;;;;;14.93;8.97;;;12.40;99.90;;;;;;4995318;28;20240;-79
2023/10/06 03:13:03;;;;;;;19.63;9.40;;;12.30;99.90;;;;;;5006300;28;20221;-81
2023/10/06 03:15:35;;;;;;;13.13;8.33;;;12.40;99.90;;;;;;4995274;28;20882;-80
2023/10/06 03:18:05;;;;;;;14.70;8.57;;;12.40;99.90;;;;;;4989999;28;20291;-80
2023/10/06 03:20:40;;;;;;;14.40;8.80;;;12.40;99.90;;;;;;4994396;28;20232;-80
2023/10/06 03:23:24;;;;;;;15.90;9.13;;;12.40;99.90;;;;;;4997636;28;20319;-81
2023/10/06 03:25:54;;;;;;;13.70;8.57;;;12.40;99.90;;;;;;4997599;28;20773;-81
2023/10/06 03:28:24;;;;;;;13.23;8.33;;;12.40;99.90;;;;;;4994875;28;20625;-81
2023/10/06 03:30:52;;;;;;;14.53;8.57;;;12.40;99.90;;;;;;4995164;28;20699;-82
2023/10/06 03:33:23;;;;;;;14.73;8.70;;;12.40;99.90;;;;;;4994824;28;20226;-82
2023/10/06 03:35:50;;;;;;;15.77;8.70;;;12.40;99.90;;;;;;5011076;28;20276;-80
2023/10/06 03:38:34;;;;;;;14.60;8.63;;;12.40;99.90;;;;;;4991550;28;20269;-81
2023/10/06 03:41:18;;;;;;;11.63;7.97;;;12.50;99.90;;;;;;4998649;28;20218;-80
2023/10/06 03:43:50;;;;;;;16.90;9.53;;;12.50;99.90;;;;;;5005730;28;20222;-80
2023/10/06 03:46:18;;;;;;;13.17;8.47;;;12.50;99.90;;;;;;4992709;28;20218;-79
2023/10/06 03:48:48;;;;;;;15.50;8.90;;;12.50;99.90;;;;;;5009039;28;20602;-80
2023/10/06 03:51:16;;;;;;;15.83;9.03;;;12.50;99.90;;;;;;4994002;28;20228;-79
2023/10/06 03:53:44;;;;;;;15.53;9.37;;;12.40;99.90;;;;;;4988868;28;20959;-80
2023/10/06 03:56:13;;;;;;;15.27;9.13;;;12.40;99.90;;;;;;4997008;28;20571;-79
2023/10/06 03:58:40;;;;;;;18.13;10.10;;;12.40;99.90;;;;;;4999967;28;20283;-80
2023/10/06 04:01:09;;;;;;;19.13;9.50;;;12.50;99.90;;;;;;4992973;28;20305;-81
2023/10/06 04:03:36;;;;;;;13.23;9.30;;;12.40;99.90;;;;;;4994351;28;20230;-80
2023/10/06 04:06:04;;;;;;;15.83;10.17;;;12.50;99.90;;;;;;4991208;28;20220;-82
2023/10/06 04:08:31;;;;;;;17.10;10.77;;;12.50;99.90;;;;;;4988081;28;20287;-80
2023/10/06 04:10:58;;;;;;;20.23;11.03;;;12.50;99.90;;;;;;4993255;28;20217;-81
2023/10/06 04:13:26;;;;;;;15.33;9.77;;;12.50;99.90;;;;;;4993576;28;20232;-81
2023/10/06 04:15:54;;;;;;;14.67;10.37;;;12.50;99.90;;;;;;4994579;28;20253;-80
2023/10/06 04:18:22;;;;;;;14.30;9.70;;;12.50;99.90;;;;;;4996308;28;20713;-80
2023/10/06 04:20:51;;;;;;;15.73;9.67;;;12.50;99.90;;;;;;4988789;28;20221;-81
2023/10/06 04:23:18;;;;;;;16.67;10.27;;;12.50;99.90;;;;;;4996479;28;20224;-80
2023/10/06 04:25:46;;;;;;;14.77;10.33;;;12.50;99.90;;;;;;4984365;28;20324;-81
2023/10/06 04:28:14;;;;;;;13.83;9.67;;;12.50;99.90;;;;;;4986585;28;20222;-80
2023/10/06 04:30:43;;;;;;;17.33;9.37;;;12.50;99.90;;;;;;5003386;28;20255;-80
2023/10/06 04:33:11;;;;;;;15.43;9.73;;;12.50;99.90;;;;;;5011104;28;20241;-81
2023/10/06 04:35:40;;;;;;;15.27;9.50;;;12.50;99.90;;;;;;4994086;28;20687;-79
2023/10/06 04:38:10;;;;;;;17.03;10.20;;;12.50;99.90;;;;;;4991072;28;20550;-80
2023/10/06 04:40:36;;;;;;;14.03;9.43;;;12.50;99.90;;;;;;4995957;28;20267;-80
2023/10/06 04:43:03;;;;;;;14.20;9.50;;;12.50;99.90;;;;;;4991093;28;20252;-80
2023/10/06 04:45:31;;;;;;;15.90;9.20;;;12.50;99.90;;;;;;4998603;28;20268;-83
2023/10/06 04:48:00;;;;;;;16.37;9.00;;;12.50;99.90;;;;;;5011773;28;20229;-80
2023/10/06 04:50:28;;;;;;;15.47;9.60;;;12.50;99.90;;;;;;5005376;28;20241;-82
2023/10/06 04:52:55;;;;;;;12.80;8.60;;;12.50;99.90;;;;;;4995418;28;20218;-79
2023/10/06 04:55:22;;;;;;;14.83;8.73;;;12.50;99.90;;;;;;4998097;28;20222;-82
2023/10/06 04:57:48;;;;;;;12.63;8.07;;;12.60;99.90;;;;;;4989902;28;20223;-80
2023/10/06 05:00:19;;;;;;;13.90;7.50;;;12.50;99.90;;;;;;4996184;28;20732;-81
2023/10/06 05:02:47;;;;;;;13.03;8.00;;;12.60;99.90;;;;;;4992721;28;20424;-81
2023/10/06 05:05:19;;;;;;;14.10;7.60;;;12.60;99.90;;;;;;5001084;28;20239;-81
2023/10/06 05:07:46;;;;;;;16.50;7.90;;;12.60;99.90;;;;;;5006108;28;20432;-84
2023/10/06 05:10:13;;;;;;;14.60;7.70;;;12.60;99.90;;;;;;4998473;28;20295;-81
2023/10/06 05:12:42;;;;;;;14.63;7.80;;;12.60;99.90;;;;;;5000631;28;20231;-83
2023/10/06 05:15:15;;;;;;;12.80;6.90;;;12.70;99.90;;;;;;4996275;28;20872;-82
2023/10/06 05:17:41;;;;;;;13.10;7.57;;;12.70;99.90;;;;;;5003842;28;20740;-82
2023/10/06 05:20:19;;;;;;;10.77;6.97;;;12.70;99.90;;;;;;4998773;28;20218;-83
2023/10/06 05:22:49;;;;;;;12.80;7.37;;;12.70;99.90;;;;;;4995758;28;20307;-81
2023/10/06 05:25:19;;;;;;;10.97;7.13;;;12.70;99.90;;;;;;5007082;28;20218;-80
2023/10/06 05:27:46;;;;;;;12.70;6.77;;;12.70;99.90;;;;;;4989986;28;20646;-79
2023/10/06 05:30:14;;;;;;;12.00;6.53;;;12.70;99.90;;;;;;4999452;28;20292;-79
2023/10/06 05:32:42;;;;;;;9.13;5.77;;;12.70;99.90;;;;;;4996502;28;20299;-80
2023/10/06 05:35:13;;;;;;;11.23;6.00;;;12.70;99.90;;;;;;4995778;28;20623;-80
2023/10/06 05:37:42;;;;;;;9.17;5.90;;;12.70;99.90;;;;;;5001799;28;20507;-79
2023/10/06 05:40:13;;;;;;;8.57;5.80;;;12.80;99.90;;;;;;4992837;28;20227;-80
2023/10/06 05:42:41;;;;;;;13.07;5.87;;;12.80;99.90;;;;;;5004666;28;20798;-82
2023/10/06 05:45:15;;;;;;;10.37;5.63;;;12.80;99.90;;;;;;4994665;28;20291;-81
2023/10/06 05:47:43;;;;;;;9.37;5.87;;;12.80;99.90;;;;;;4998773;28;20646;-82
2023/10/06 05:50:11;;;;;;;13.20;6.30;;;12.80;99.90;;;;;;4992314;28;20254;-81
2023/10/06 05:52:38;;;;;;;12.03;5.43;;;12.80;99.90;;;;;;4990985;28;20225;-81
2023/10/06 05:55:09;;;;;;;9.67;5.70;;;12.80;99.90;;;;;;4996406;28;20221;-81
2023/10/06 05:57:39;;;;;;;12.03;5.93;;;12.80;99.90;;;;;;5013853;28;20211;-82
2023/10/06 06:00:09;;;;;;;9.30;5.23;;;12.80;99.90;;;;;;4993001;28;20313;-81
2023/10/06 06:02:37;;;;;;;8.87;5.10;;;12.80;99.90;;;;;;4988104;28;20229;-84
2023/10/06 06:05:06;;;;;;;8.57;5.73;;;12.80;99.90;;;;;;5002393;28;20223;-83
2023/10/06 06:07:34;;;;;;;14.53;5.37;;;12.80;99.90;;;;;;5001950;28;20287;-82
2023/10/06 06:10:03;;;;;;;10.47;5.27;;;12.80;99.90;;;;;;5003748;28;20226;-80
2023/10/06 06:12:30;;;;;;;7.80;4.83;;;12.90;99.90;;;;;;5012791;28;20906;-81
2023/10/06 06:14:59;;;;;;;10.00;5.37;;;12.90;99.90;;;;;;4995783;28;20223;-82
2023/10/06 06:17:26;;;;;;;10.97;5.23;;;12.90;99.90;;;;;;5005026;28;20242;-81
2023/10/06 06:19:53;;;;;;;10.17;5.13;;;12.90;99.90;;;;;;5000656;28;20229;-82
2023/10/06 06:22:20;;;;;;;13.73;5.47;;;13.00;99.90;;;;;;4995987;28;20226;-81
2023/10/06 06:24:47;;;;;;;11.53;5.80;;;12.90;99.90;;;;;;4995826;28;20233;-81
2023/10/06 06:27:15;;;;;;;10.63;5.23;;;13.00;99.90;;;;;;4998819;28;20239;-83
2023/10/06 06:29:43;;;;;;;10.47;5.37;;;13.00;99.90;;;;;;5003234;28;20236;-81
2023/10/06 06:32:14;;;;;;;13.33;5.37;;;13.00;99.90;;;;;;4994406;28;20214;-82
2023/10/06 06:34:41;;;;;;;9.07;4.90;;;13.10;99.90;;;;;;4994712;28;20225;-81
2023/10/06 06:37:10;;;;;;;11.37;5.03;;;13.10;99.90;;;;;;4990431;28;20224;-82
2023/10/06 06:39:37;;;;;;;8.50;5.07;;;13.10;99.90;;;;;;5003464;28;20712;-81
2023/10/06 06:42:05;;;;;;;8.77;4.97;;;13.10;99.90;;;;;;5009057;28;20234;-82
2023/10/06 06:44:32;;;;;;;8.13;4.83;;;13.10;99.90;;;;;;4993143;28;20233;-81
2023/10/06 06:46:58;;;;;;;8.97;4.87;;;13.10;99.90;;;;;;4995423;28;20620;-82
2023/10/06 06:49:26;;;;;;;10.47;5.73;;;13.10;99.90;;;;;;4997884;28;20241;-82
2023/10/06 06:51:53;;;;;;;10.20;5.23;;;13.10;99.90;;;;;;4998245;28;20785;-81
2023/10/06 06:54:20;;;;;;;8.87;5.03;;;13.10;99.90;;;;;;4996423;28;20246;-81
2023/10/06 06:56:47;;;;;;;11.17;5.43;;;13.10;99.90;;;;;;4992348;28;20289;-83
2023/10/06 06:59:14;;;;;;;10.87;5.70;;;13.10;99.90;;;;;;4997691;28;20701;-81
2023/10/06 07:01:41;;;;;;;8.27;4.77;;;13.00;99.90;;;;;;5000779;28;20222;-80
2023/10/06 07:04:07;;;;;;;11.57;5.67;;;13.10;99.90;;;;;;5001584;28;20237;-81
2023/10/06 07:06:36;;;;;;;9.97;5.50;;;13.10;99.90;;;;;;4997977;28;20219;-80
2023/10/06 07:09:12;;;;;;;10.30;5.60;;;13.10;99.90;;;;;;4994948;28;20233;-80
2023/10/06 07:11:39;;;;;;;10.27;5.03;;;13.10;99.90;;;;;;4995870;28;20241;-81
2023/10/06 07:14:06;;;;;;;12.37;5.23;;;13.10;99.90;;;;;;5002037;28;20599;-81
2023/10/06 07:16:33;;;;;;;10.97;5.50;;;13.10;99.90;;;;;;5000171;28;20234;-84
2023/10/06 07:19:00;;;;;;;12.40;5.90;;;13.10;99.90;;;;;;5011403;28;20266;-83
2023/10/06 07:21:28;;;;;;;9.47;5.60;;;13.10;99.90;;;;;;4999510;28;20228;-82
2023/10/06 07:23:56;;;;;;;10.43;5.50;;;13.10;99.90;;;;;;4998908;28;20224;-80
2023/10/06 07:26:23;;;;;;;11.00;5.23;;;13.10;99.90;;;;;;4996959;28;20231;-80
2023/10/06 07:28:52;;;;;;;11.80;5.23;;;13.10;99.90;;;;;;4989449;28;20689;-81
2023/10/06 07:31:19;;;;;;;13.07;5.27;;;13.10;99.90;;;;;;4985271;28;20236;-81
2023/10/06 07:33:52;;;;;;;9.67;5.50;;;13.10;99.90;;;;;;4983242;28;20437;-81
2023/10/06 07:36:19;;;;;;;10.83;5.70;;;13.10;99.90;;;;;;4989250;28;20223;-79
2023/10/06 07:38:48;;;;;;;7.90;5.13;;;13.10;99.90;;;;;;4994741;28;20281;-79
2023/10/06 07:41:20;;;;;;;13.80;5.43;;;13.00;99.90;;;;;;4988452;28;20226;-78
2023/10/06 07:43:48;;;;;;;8.30;5.63;;;13.10;99.90;;;;;;4977854;28;20227;-79
2023/10/06 07:46:16;;;;;;;12.13;5.80;;;13.10;99.90;;;;;;4989626;28;20246;-80
2023/10/06 07:48:43;;;;;;;11.53;5.37;;;13.10;99.90;;;;;;4983096;28;20227;-78
2023/10/06 07:51:13;;;;;;;9.43;5.47;;;13.10;99.90;;;;;;4999959;28;20333;-78
2023/10/06 07:53:40;;;;;;;10.17;4.87;;;13.10;99.90;;;;;;4989014;28;20222;-78
2023/10/06 07:56:07;;;;;;;8.17;5.20;;;13.20;99.90;;;;;;4985808;28;20994;-78
2023/10/06 07:58:37;;;;;;;9.53;4.93;;;13.20;99.90;;;;;;4985783;28;20385;-80
2023/10/06 08:01:07;;;;;;;11.73;5.13;;;13.20;99.90;;;;;;4978535;28;20242;-77
2023/10/06 08:03:37;;;;;;;11.60;5.40;;;13.20;99.90;;;;;;4989056;28;20231;-77
2023/10/06 08:06:05;;;;;;;11.00;5.53;;;13.30;99.90;;;;;;4984336;28;20243;-79
2023/10/06 08:08:33;;;;;;;9.80;5.20;;;13.30;99.90;;;;;;4975102;28;20253;-78
2023/10/06 08:11:01;;;;;;;10.60;5.13;;;13.40;99.90;;;;;;4987240;28;20632;-78
2023/10/06 08:13:29;;;;;;;10.07;5.20;;;13.40;99.90;;;;;;4995165;28;20701;-77
2023/10/06 08:15:58;;;;;;;10.70;5.30;;;13.40;99.90;;;;;;5004816;28;20226;-78
2023/10/06 08:18:26;;;;;;;10.33;5.93;;;13.40;99.90;;;;;;4989739;28;20228;-78
2023/10/06 08:20:54;;;;;;;9.77;5.10;;;13.50;99.90;;;;;;4997958;28;20383;-77
2023/10/06 08:23:21;;;;;;;10.60;5.20;;;13.50;99.90;;;;;;5003022;28;20316;-77
2023/10/06 08:25:49;;;;;;;10.00;4.83;;;13.50;99.90;;;;;;4998107;28;20231;-77
2023/10/06 08:28:16;;;;;;;10.13;5.03;;;13.50;99.90;;;;;;5010338;28;20648;-80
2023/10/06 08:30:43;;;;;;;10.83;4.87;;;13.60;99.90;;;;;;5013660;28;20643;-79
2023/10/06 08:33:11;;;;;;;12.47;5.07;;;13.60;99.90;;;;;;5008080;28;20820;-80
2023/10/06 08:35:40;;;;;;;10.67;4.73;;;13.60;99.90;;;;;;5000832;28;20658;-80
2023/10/06 08:38:08;;;;;;;10.90;5.53;;;13.60;99.90;;;;;;5007480;28;20223;-80
2023/10/06 08:40:37;;;;;;;11.80;5.07;;;13.60;99.90;;;;;;5011280;28;20856;-79
2023/10/06 08:43:07;;;;;;;8.10;4.47;;;13.60;99.90;;;;;;5005212;28;20270;-80
2023/10/06 08:45:41;;;;;;;9.83;5.50;;;13.60;99.90;;;;;;4993860;28;20286;-80
2023/10/06 08:48:11;;;;;;;9.13;5.00;;;13.60;99.90;;;;;;4992920;28;20239;-80
2023/10/06 08:50:38;;;;;;;13.13;4.63;;;13.60;99.90;;;;;;5007739;28;20225;-79
2023/10/06 08:53:09;;;;;;;10.67;5.30;;;13.60;99.90;;;;;;5009901;28;20317;-80
2023/10/06 08:55:37;;;;;;;9.90;5.00;;;13.60;99.90;;;;;;5012585;28;20224;-80
2023/10/06 08:58:04;;;;;;;9.53;4.80;;;13.60;99.90;;;;;;5002366;28;20243;-79
2023/10/06 09:00:34;;;;;;;11.70;4.63;;;13.60;99.90;;;;;;5005089;28;20230;-80
2023/10/06 09:03:07;;;;;;;9.90;4.87;;;13.60;99.90;;;;;;5021259;28;20254;-80
2023/10/06 09:05:37;;;;;;;10.83;5.20;;;13.70;99.90;;;;;;5004740;28;20229;-80
2023/10/06 09:08:06;;;;;;;11.67;5.33;;;13.70;99.90;;;;;;4995829;28;20256;-80
2023/10/06 09:10:34;;;;;;;11.67;5.30;;;13.80;99.90;;;;;;4999803;28;20255;-80
2023/10/06 09:13:02;;;;;;;10.47;5.17;;;13.80;99.90;;;;;;5006067;28;20249;-80
2023/10/06 09:15:29;;;;;;;10.17;5.40;;;13.80;99.90;;;;;;5001699;28;20233;-80
2023/10/06 09:17:57;;;;;;;10.93;4.93;;;13.80;99.90;;;;;;5020853;28;20603;-80
2023/10/06 09:20:37;;;;;;;15.07;5.53;;;13.90;99.90;;;;;;5010744;28;21314;-80
2023/10/06 09:23:04;;;;;;;11.17;4.90;;;13.90;99.90;;;;;;5010388;28;20434;-80
2023/10/06 09:25:42;;;;;;;10.07;5.50;;;13.90;99.90;;;;;;5003902;28;20231;-80
2023/10/06 09:28:13;;;;;;;9.70;5.03;;;13.90;99.90;;;;;;5011448;28;20758;-80
2023/10/06 09:30:51;;;;;;;9.13;4.57;;;13.90;99.90;;;;;;5010260;28;20239;-80
2023/10/06 09:33:18;;;;;;;8.60;4.93;;;13.90;99.90;;;;;;4994333;28;20234;-80
2023/10/06 09:35:45;;;;;;;11.97;5.20;;;13.90;99.90;;;;;;5004006;28;20234;-81
2023/10/06 09:38:15;;;;;;;7.37;4.13;;;13.90;99.90;;;;;;5004430;28;20223;-80
2023/10/06 09:40:43;;;;;;;9.70;4.70;;;13.90;99.90;;;;;;5011261;28;20525;-80
2023/10/06 09:43:15;;;;;;;11.33;4.77;;;13.90;99.90;;;;;;5010734;28;20494;-80
2023/10/06 09:45:42;;;;;;;10.53;4.77;;;13.90;99.90;;;;;;5026800;28;20233;-80
2023/10/06 09:48:15;;;;;;;12.30;4.77;;;13.90;99.90;;;;;;5011977;28;20248;-80
2023/10/06 09:50:43;;;;;;;11.43;5.17;;;13.90;99.90;;;;;;5000268;28;20254;-80
2023/10/06 09:53:13;;;;;;;8.47;4.87;;;13.90;99.90;;;;;;4997169;28;20226;-80
2023/10/06 09:55:41;;;;;;;9.73;4.40;;;13.90;99.90;;;;;;5000585;28;20288;-80
2023/10/06 09:58:08;;;;;;;10.83;4.80;;;13.90;99.90;;;;;;5018819;28;20227;-80
2023/10/06 10:00:39;;;;;;;11.73;4.50;;;13.90;99.90;;;;;;4998157;28;20232;-81
2023/10/06 10:03:07;;;;;;;8.93;4.67;;;13.90;99.90;;;;;;5006064;28;20301;-80
2023/10/06 10:05:35;;;;;;;8.37;4.47;;;13.90;99.90;;;;;;4996670;28;20772;-79
2023/10/06 10:08:02;;;;;;;8.23;4.80;;;13.90;99.90;;;;;;5007519;28;20226;-80
2023/10/06 10:10:32;;;;;;;7.17;3.87;;;13.90;99.90;;;;;;5007217;28;20224;-82
2023/10/06 10:13:23;;;;;;;10.00;4.80;;;13.90;99.90;;;;;;5000866;28;20229;-83
2023/10/06 10:16:09;;;;;;;9.67;4.90;;;13.90;99.90;;;;;;4988543;28;20233;-83
2023/10/06 10:18:38;;;;;;;8.57;4.13;;;13.80;99.90;;;;;;5000102;28;20228;-83
2023/10/06 10:21:08;;;;;;;8.97;4.57;;;13.90;99.90;;;;;;5002224;28;20285;-84
2023/10/06 10:23:40;;;;;;;8.00;4.57;;;13.80;99.90;;;;;;4999905;28;20228;-83
2023/10/06 10:26:18;;;;;;;7.27;4.60;;;13.80;99.90;;;;;;4996485;28;20582;-83
2023/10/06 10:28:45;;;;;;;7.43;4.67;;;13.80;99.90;;;;;;4993171;28;20239;-83
2023/10/06 10:31:17;;;;;;;8.63;4.67;;;13.80;99.90;;;;;;4995464;28;20215;-84
2023/10/06 10:33:46;;;;;;;8.60;3.97;;;13.80;99.90;;;;;;5008385;28;20220;-83
2023/10/06 10:36:23;;;;;;;8.83;4.80;;;13.80;99.90;;;;;;4999456;28;20251;-83
2023/10/06 10:39:09;;;;;;;7.93;4.80;;;13.80;99.90;;;;;;4991232;28;20733;-84
2023/10/06 10:41:37;;;;;;;7.77;4.53;;;13.80;99.90;;;;;;4999176;28;20548;-83
2023/10/06 10:44:11;;;;;;;9.57;4.70;;;13.80;99.90;;;;;;4991695;28;20249;-83
2023/10/06 10:46:42;;;;;;;10.87;4.73;;;13.70;99.90;;;;;;4999789;28;20312;-83
2023/10/06 10:49:11;;;;;;;7.03;5.00;;;13.70;99.90;;;;;;5000946;28;20326;-84
2023/10/06 10:51:51;;;;;;;9.10;5.27;;;13.70;99.90;;;;;;5000980;28;20687;-82
2023/10/06 10:54:23;;;;;;;9.57;5.00;;;13.70;99.90;;;;;;5011226;28;20253;-83
2023/10/06 10:56:53;;;;;;;10.77;5.23;;;13.70;99.90;;;;;;4997271;28;20245;-81
2023/10/06 10:59:26;;;;;;;8.83;5.00;;;13.60;99.90;;;;;;5001176;28;20774;-81
2023/10/06 11:01:53;;;;;;;7.90;5.17;;;13.60;99.90;;;;;;4999370;28;20228;-82
2023/10/06 11:04:31;;;;;;;8.00;5.10;;;13.60;99.90;;;;;;4991488;28;20232;-82
2023/10/06 11:07:04;;;;;;;9.43;5.20;;;13.60;99.90;;;;;;5010406;28;20227;-81
2023/10/06 11:09:36;;;;;;;9.70;6.53;;;13.60;99.90;;;;;;5000786;28;20234;-81
2023/10/06 11:12:18;;;;;;;9.77;6.27;;;13.50;99.90;;;;;;5004680;28;20298;-81
2023/10/06 11:14:46;;;;;;;11.07;6.20;;;13.50;99.90;;;;;;5001203;28;20307;-81
2023/10/06 11:17:14;;;;;;;9.30;5.83;;;13.50;99.90;;;;;;5004937;28;20222;-81
2023/10/06 11:19:41;;;;;;;11.37;6.20;;;13.50;99.90;;;;;;5006463;28;20224;-82
2023/10/06 11:22:14;;;;;;;10.37;5.97;;;13.50;99.90;;;;;;5001959;28;20218;-81
2023/10/06 11:24:44;;;;;;;7.67;5.53;;;13.50;99.90;;;;;;5008701;28;20247;-81
2023/10/06 11:27:14;;;;;;;8.47;5.53;;;13.60;99.90;;;;;;5004281;28;20518;-82
2023/10/06 11:29:41;;;;;;;11.23;6.50;;;13.60;99.90;;;;;;5007986;28;20233;-81
2023/10/06 11:32:08;;;;;;;9.40;5.77;;;13.60;99.90;;;;;;5000056;28;20768;-81
2023/10/06 11:34:35;;;;;;;8.30;5.93;;;13.70;99.90;;;;;;4998098;28;20231;-82
2023/10/06 11:37:02;;;;;;;8.43;5.50;;;13.70;99.90;;;;;;4999506;28;20255;-81
2023/10/06 11:39:29;;;;;;;10.13;5.97;;;13.70;99.90;;;;;;4998205;28;20291;-82
2023/10/06 11:42:29;;;;;;;10.13;6.13;;;13.70;99.90;;;;;;5000342;28;20236;-81
2023/10/06 11:44:57;;;;;;;10.77;5.73;;;13.70;99.90;;;;;;4999895;28;20230;-81
2023/10/06 11:47:40;;;;;;;8.23;5.33;;;13.80;99.90;;;;;;5004090;28;20244;-81
2023/10/06 11:50:08;;;;;;;9.53;5.17;;;13.80;99.90;;;;;;5002374;28;21105;-81
2023/10/06 11:52:35;;;;;;;8.83;5.07;;;13.80;99.90;;;;;;4996811;28;20254;-81
2023/10/06 11:55:08;;;;;;;7.47;5.07;;;13.80;99.90;;;;;;4995955;28;20699;-81
2023/10/06 11:57:47;;;;;;;10.73;5.03;;;13.80;99.90;;;;;;5016116;28;20244;-81
2023/10/06 12:00:17;;;;;;;7.23;4.67;;;13.90;99.90;;;;;;4999521;28;20230;-81
2023/10/06 12:02:49;;;;;;;8.63;4.80;;;13.90;99.90;;;;;;5002584;28;20310;-81
2023/10/06 12:05:17;;;;;;;9.43;4.50;;;14.00;99.90;;;;;;4996908;28;20245;-81
2023/10/06 12:07:44;;;;;;;8.03;4.73;;;14.00;99.90;;;;;;5011470;28;20236;-81
2023/10/06 12:10:11;;;;;;;7.23;4.70;;;14.00;99.90;;;;;;5006112;28;20218;-82
2023/10/06 12:12:40;;;;;;;7.87;4.93;;;14.00;99.90;;;;;;5021352;28;20262;-81
2023/10/06 12:15:09;;;;;;;9.47;5.10;;;14.00;99.90;;;;;;4997134;28;20216;-81
2023/10/06 12:17:38;;;;;;;8.10;5.23;;;14.00;99.90;;;;;;4993710;28;20221;-81
2023/10/06 12:20:07;;;;;;;9.90;5.33;;;14.00;99.90;;;;;;4998031;28;20224;-81
2023/10/06 12:22:34;;;;;;;9.47;5.90;;;14.10;99.90;;;;;;4994430;28;20248;-81
2023/10/06 12:25:01;;;;;;;9.67;4.67;;;14.10;99.90;;;;;;4998450;28;20301;-81
2023/10/06 12:27:28;;;;;;;14.23;4.90;;;14.10;99.90;;;;;;5006369;28;20236;-81
2023/10/06 12:29:55;;;;;;;8.37;5.60;;;14.20;99.90;;;;;;4996627;28;20236;-81
2023/10/06 12:32:23;;;;;;;11.90;5.97;;;14.20;99.90;;;;;;5004202;28;20228;-81
2023/10/06 12:34:50;;;;;;;8.70;5.70;;;14.20;99.90;;;;;;4998910;28;20624;-81
2023/10/06 12:37:17;;;;;;;10.37;5.37;;;14.30;99.90;;;;;;5003375;28;20765;-81
2023/10/06 12:39:45;;;;;;;8.03;5.00;;;14.30;99.90;;;;;;5018242;28;20227;-82
2023/10/06 12:42:16;;;;;;;9.70;5.10;;;14.30;99.90;;;;;;5001678;28;20662;-82
2023/10/06 12:44:43;;;;;;;7.27;5.30;;;14.40;99.90;;;;;;4995322;28;20319;-81
2023/10/06 12:47:11;;;;;;;10.47;4.93;;;14.50;99.90;;;;;;5000716;28;20252;-81
2023/10/06 12:49:43;;;;;;;8.13;5.00;;;14.50;99.90;;;;;;4999119;28;20223;-82
2023/10/06 12:52:10;;;;;;;12.90;5.80;;;14.60;99.90;;;;;;4998346;28;20226;-82
2023/10/06 12:54:36;;;;;;;9.93;5.80;;;14.80;99.90;;;;;;5001147;28;20230;-81